Norris, Montana
Current Conditions -  °F | °C
As of 2:56 PM on Thursday 23 Oct 2014 (Local Time) from KBZN Reporting Station
Overcast Overcast  
Wind Chill: 64°   Ceiling: 11000
Heat Index: 64°   Visibility: 10mi
Dew Point: 31°   Wind: 14mph
Humidity: 29%   Direction: 210°SSW
Pressure: 29.93"   Gusts: NA
Location:  45.57°N, 111.69°W
Report Text: KBZN 232056Z 21012KT 10SM OVC110 18/M01 A2993 RMK AO2 SLP122 T01781006 58019
Loading
Personal Weather Stations






























Interactive Weather Map
Tropical Storm Tracking
New forecast layout! Learn more

10-Day Weather Forecast

Advertisements
Track Severe Weather on mobile